sensor_id;sensor_type;location;lat;lon;timestamp;temperature;humidity
12977;DHT22;6553;48.412;9.514;2023-11-21T00:01:22;19.40;71.20
12977;DHT22;6553;48.412;9.514;2023-11-21T00:03:48;19.40;71.10
12977;DHT22;6553;48.412;9.514;2023-11-21T00:06:14;19.40;71.30
12977;DHT22;6553;48.412;9.514;2023-11-21T00:08:40;19.40;71.30
12977;DHT22;6553;48.412;9.514;2023-11-21T00:11:05;19.40;71.20
12977;DHT22;6553;48.412;9.514;2023-11-21T00:13:32;19.40;71.10
12977;DHT22;6553;48.412;9.514;2023-11-21T00:15:58;19.40;71.20
12977;DHT22;6553;48.412;9.514;2023-11-21T00:18:24;19.40;71.20
12977;DHT22;6553;48.412;9.514;2023-11-21T00:20:50;19.40;71.10
12977;DHT22;6553;48.412;9.514;2023-11-21T00:23:15;19.40;71.10
12977;DHT22;6553;48.412;9.514;2023-11-21T00:25:41;19.40;71.10
12977;DHT22;6553;48.412;9.514;2023-11-21T00:28:07;19.40;71.10
12977;DHT22;6553;48.412;9.514;2023-11-21T00:30:33;19.40;71.10
12977;DHT22;6553;48.412;9.514;2023-11-21T00:32:59;19.40;71.10
12977;DHT22;6553;48.412;9.514;2023-11-21T00:35:25;19.40;71.10
12977;DHT22;6553;48.412;9.514;2023-11-21T00:37:51;19.40;71.10
12977;DHT22;6553;48.412;9.514;2023-11-21T00:40:16;19.40;71.10
12977;DHT22;6553;48.412;9.514;2023-11-21T00:42:46;19.40;71.10
12977;DHT22;6553;48.412;9.514;2023-11-21T00:45:12;19.40;71.10
12977;DHT22;6553;48.412;9.514;2023-11-21T00:47:38;19.40;71.10
12977;DHT22;6553;48.412;9.514;2023-11-21T00:50:04;19.40;71.10
12977;DHT22;6553;48.412;9.514;2023-11-21T00:52:32;19.40;71.10
12977;DHT22;6553;48.412;9.514;2023-11-21T00:54:58;19.40;71.10
12977;DHT22;6553;48.412;9.514;2023-11-21T00:57:28;19.40;71.20
12977;DHT22;6553;48.412;9.514;2023-11-21T00:59:54;19.40;71.20
12977;DHT22;6553;48.412;9.514;2023-11-21T01:02:21;19.40;71.20
12977;DHT22;6553;48.412;9.514;2023-11-21T01:04:46;19.40;71.20
12977;DHT22;6553;48.412;9.514;2023-11-21T01:07:13;19.40;71.20
12977;DHT22;6553;48.412;9.514;2023-11-21T01:09:39;19.40;71.20
12977;DHT22;6553;48.412;9.514;2023-11-21T01:12:05;19.40;71.20
12977;DHT22;6553;48.412;9.514;2023-11-21T01:14:33;19.40;71.20
12977;DHT22;6553;48.412;9.514;2023-11-21T01:16:59;19.40;71.20
12977;DHT22;6553;48.412;9.514;2023-11-21T01:19:24;19.40;71.10
12977;DHT22;6553;48.412;9.514;2023-11-21T01:21:50;19.40;71.10
12977;DHT22;6553;48.412;9.514;2023-11-21T01:24:17;19.40;71.10
12977;DHT22;6553;48.412;9.514;2023-11-21T01:26:43;19.40;71.10
12977;DHT22;6553;48.412;9.514;2023-11-21T01:29:10;19.40;71.10
12977;DHT22;6553;48.412;9.514;2023-11-21T01:31:36;19.40;71.10
12977;DHT22;6553;48.412;9.514;2023-11-21T01:34:02;19.40;71.20
12977;DHT22;6553;48.412;9.514;2023-11-21T01:36:31;19.40;71.10
12977;DHT22;6553;48.412;9.514;2023-11-21T01:38:58;19.40;71.10
12977;DHT22;6553;48.412;9.514;2023-11-21T01:41:27;19.40;71.20
12977;DHT22;6553;48.412;9.514;2023-11-21T01:43:56;19.40;71.20
12977;DHT22;6553;48.412;9.514;2023-11-21T01:46:23;19.40;71.90
12977;DHT22;6553;48.412;9.514;2023-11-21T01:48:49;19.40;71.20
12977;DHT22;6553;48.412;9.514;2023-11-21T01:51:16;19.40;71.10
12977;DHT22;6553;48.412;9.514;2023-11-21T01:53:44;19.40;71.10
12977;DHT22;6553;48.412;9.514;2023-11-21T01:56:12;19.40;71.20
12977;DHT22;6553;48.412;9.514;2023-11-21T01:58:39;19.40;71.10
12977;DHT22;6553;48.412;9.514;2023-11-21T02:01:05;19.40;71.10
12977;DHT22;6553;48.412;9.514;2023-11-21T02:03:31;19.40;71.10
12977;DHT22;6553;48.412;9.514;2023-11-21T02:05:57;19.40;71.20
12977;DHT22;6553;48.412;9.514;2023-11-21T02:08:25;19.40;71.10
12977;DHT22;6553;48.412;9.514;2023-11-21T02:10:52;19.40;71.10
12977;DHT22;6553;48.412;9.514;2023-11-21T02:13:18;19.40;71.10
12977;DHT22;6553;48.412;9.514;2023-11-21T02:15:44;19.40;71.10
12977;DHT22;6553;48.412;9.514;2023-11-21T02:18:10;19.40;71.00
12977;DHT22;6553;48.412;9.514;2023-11-21T02:20:37;19.40;71.00
12977;DHT22;6553;48.412;9.514;2023-11-21T02:23:04;19.40;71.00
12977;DHT22;6553;48.412;9.514;2023-11-21T02:25:31;19.40;71.10
12977;DHT22;6553;48.412;9.514;2023-11-21T02:28:00;19.40;71.10
12977;DHT22;6553;48.412;9.514;2023-11-21T02:30:27;19.40;71.10
12977;DHT22;6553;48.412;9.514;2023-11-21T02:32:53;19.40;71.20
12977;DHT22;6553;48.412;9.514;2023-11-21T02:35:20;19.40;71.10
12977;DHT22;6553;48.412;9.514;2023-11-21T02:37:49;19.40;71.20
12977;DHT22;6553;48.412;9.514;2023-11-21T02:40:15;19.40;71.20
12977;DHT22;6553;48.412;9.514;2023-11-21T02:42:46;19.40;71.10
12977;DHT22;6553;48.412;9.514;2023-11-21T02:45:14;19.40;71.10
12977;DHT22;6553;48.412;9.514;2023-11-21T02:47:42;19.40;71.10
12977;DHT22;6553;48.412;9.514;2023-11-21T02:50:09;19.40;71.10
12977;DHT22;6553;48.412;9.514;2023-11-21T02:52:35;19.40;71.10
12977;DHT22;6553;48.412;9.514;2023-11-21T02:55:04;19.40;71.10
12977;DHT22;6553;48.412;9.514;2023-11-21T02:57:31;19.40;71.10
12977;DHT22;6553;48.412;9.514;2023-11-21T02:59:56;19.40;71.10
12977;DHT22;6553;48.412;9.514;2023-11-21T03:02:22;19.40;71.20
12977;DHT22;6553;48.412;9.514;2023-11-21T03:04:48;19.40;71.00
12977;DHT22;6553;48.412;9.514;2023-11-21T03:07:15;19.40;71.10
12977;DHT22;6553;48.412;9.514;2023-11-21T03:09:41;19.40;71.10
12977;DHT22;6553;48.412;9.514;2023-11-21T03:12:08;19.40;71.00
12977;DHT22;6553;48.412;9.514;2023-11-21T03:14:35;19.40;71.10
12977;DHT22;6553;48.412;9.514;2023-11-21T03:17:00;19.40;71.00
12977;DHT22;6553;48.412;9.514;2023-11-21T03:19:27;19.40;71.10
12977;DHT22;6553;48.412;9.514;2023-11-21T03:21:53;19.40;71.10
12977;DHT22;6553;48.412;9.514;2023-11-21T03:24:19;19.40;71.10
12977;DHT22;6553;48.412;9.514;2023-11-21T03:26:48;19.40;71.10
12977;DHT22;6553;48.412;9.514;2023-11-21T03:29:14;19.40;71.20
12977;DHT22;6553;48.412;9.514;2023-11-21T03:31:40;19.40;71.10
12977;DHT22;6553;48.412;9.514;2023-11-21T03:34:09;19.40;71.20
12977;DHT22;6553;48.412;9.514;2023-11-21T03:36:37;19.40;71.10
12977;DHT22;6553;48.412;9.514;2023-11-21T03:39:02;19.40;71.10
12977;DHT22;6553;48.412;9.514;2023-11-21T03:41:28;19.40;71.20
12977;DHT22;6553;48.412;9.514;2023-11-21T03:43:54;19.40;71.10
12977;DHT22;6553;48.412;9.514;2023-11-21T03:46:20;19.40;71.10
12977;DHT22;6553;48.412;9.514;2023-11-21T03:48:45;19.40;71.20
12977;DHT22;6553;48.412;9.514;2023-11-21T03:51:11;19.40;71.10
12977;DHT22;6553;48.412;9.514;2023-11-21T03:53:37;19.40;71.00
12977;DHT22;6553;48.412;9.514;2023-11-21T03:56:03;19.40;71.00
12977;DHT22;6553;48.412;9.514;2023-11-21T03:58:29;19.40;71.00
12977;DHT22;6553;48.412;9.514;2023-11-21T04:00:55;19.40;71.00
12977;DHT22;6553;48.412;9.514;2023-11-21T04:03:21;19.40;71.10
12977;DHT22;6553;48.412;9.514;2023-11-21T04:05:47;19.40;71.00
12977;DHT22;6553;48.412;9.514;2023-11-21T04:08:12;19.40;71.00
12977;DHT22;6553;48.412;9.514;2023-11-21T04:10:38;19.40;71.00
12977;DHT22;6553;48.412;9.514;2023-11-21T04:13:05;19.40;71.10
12977;DHT22;6553;48.412;9.514;2023-11-21T04:15:32;19.40;71.10
12977;DHT22;6553;48.412;9.514;2023-11-21T04:17:58;19.40;71.00
12977;DHT22;6553;48.412;9.514;2023-11-21T04:20:24;19.40;71.00
12977;DHT22;6553;48.412;9.514;2023-11-21T04:22:50;19.40;71.10
12977;DHT22;6553;48.412;9.514;2023-11-21T04:25:16;19.40;71.00
12977;DHT22;6553;48.412;9.514;2023-11-21T04:27:43;19.40;71.10
12977;DHT22;6553;48.412;9.514;2023-11-21T04:30:13;19.40;71.10
12977;DHT22;6553;48.412;9.514;2023-11-21T04:32:40;19.40;71.00
12977;DHT22;6553;48.412;9.514;2023-11-21T04:35:07;19.40;71.10
12977;DHT22;6553;48.412;9.514;2023-11-21T04:37:36;19.40;71.10
12977;DHT22;6553;48.412;9.514;2023-11-21T04:40:03;19.40;71.10
12977;DHT22;6553;48.412;9.514;2023-11-21T04:42:34;19.40;71.10
12977;DHT22;6553;48.412;9.514;2023-11-21T04:45:01;19.40;71.00
12977;DHT22;6553;48.412;9.514;2023-11-21T04:47:32;19.40;71.00
12977;DHT22;6553;48.412;9.514;2023-11-21T04:49:58;19.40;71.00
12977;DHT22;6553;48.412;9.514;2023-11-21T04:52:24;19.40;70.90
12977;DHT22;6553;48.412;9.514;2023-11-21T04:54:49;19.40;71.00
12977;DHT22;6553;48.412;9.514;2023-11-21T04:57:15;19.40;70.90
12977;DHT22;6553;48.412;9.514;2023-11-21T04:59:43;19.40;71.00
12977;DHT22;6553;48.412;9.514;2023-11-21T05:02:09;19.40;71.10
12977;DHT22;6553;48.412;9.514;2023-11-21T05:04:35;19.40;71.10
12977;DHT22;6553;48.412;9.514;2023-11-21T05:07:00;19.40;71.00
12977;DHT22;6553;48.412;9.514;2023-11-21T05:09:26;19.40;71.10
12977;DHT22;6553;48.412;9.514;2023-11-21T05:11:54;19.40;71.00
12977;DHT22;6553;48.412;9.514;2023-11-21T05:14:19;19.40;71.00
12977;DHT22;6553;48.412;9.514;2023-11-21T05:16:46;19.40;71.10
12977;DHT22;6553;48.412;9.514;2023-11-21T05:19:12;19.40;71.00
12977;DHT22;6553;48.412;9.514;2023-11-21T05:21:38;19.40;71.00
12977;DHT22;6553;48.412;9.514;2023-11-21T05:24:04;19.40;70.90
12977;DHT22;6553;48.412;9.514;2023-11-21T05:26:31;19.40;71.00
12977;DHT22;6553;48.412;9.514;2023-11-21T05:28:56;19.40;71.00
12977;DHT22;6553;48.412;9.514;2023-11-21T05:31:22;19.40;71.00
12977;DHT22;6553;48.412;9.514;2023-11-21T05:33:48;19.40;71.00
12977;DHT22;6553;48.412;9.514;2023-11-21T05:36:13;19.40;70.90
12977;DHT22;6553;48.412;9.514;2023-11-21T05:38:39;19.40;70.90
12977;DHT22;6553;48.412;9.514;2023-11-21T05:41:05;19.40;71.00
12977;DHT22;6553;48.412;9.514;2023-11-21T05:43:31;19.40;70.90
12977;DHT22;6553;48.412;9.514;2023-11-21T05:46:00;19.40;70.90
12977;DHT22;6553;48.412;9.514;2023-11-21T05:48:26;19.40;70.80
12977;DHT22;6553;48.412;9.514;2023-11-21T05:50:52;19.40;70.90
12977;DHT22;6553;48.412;9.514;2023-11-21T05:53:18;19.40;70.90
12977;DHT22;6553;48.412;9.514;2023-11-21T05:55:44;19.40;70.90
12977;DHT22;6553;48.412;9.514;2023-11-21T05:58:09;19.40;71.00
12977;DHT22;6553;48.412;9.514;2023-11-21T06:00:36;19.40;71.00
12977;DHT22;6553;48.412;9.514;2023-11-21T06:03:02;19.40;70.90
12977;DHT22;6553;48.412;9.514;2023-11-21T06:05:28;19.40;70.90
12977;DHT22;6553;48.412;9.514;2023-11-21T06:07:57;19.40;70.90
12977;DHT22;6553;48.412;9.514;2023-11-21T06:10:24;19.40;71.00
12977;DHT22;6553;48.412;9.514;2023-11-21T06:12:50;19.40;71.00
12977;DHT22;6553;48.412;9.514;2023-11-21T06:15:17;19.30;70.90
12977;DHT22;6553;48.412;9.514;2023-11-21T06:17:45;19.40;71.00
12977;DHT22;6553;48.412;9.514;2023-11-21T06:20:15;19.40;71.00
12977;DHT22;6553;48.412;9.514;2023-11-21T06:22:42;19.40;71.00
12977;DHT22;6553;48.412;9.514;2023-11-21T06:25:09;19.40;70.90
12977;DHT22;6553;48.412;9.514;2023-11-21T06:27:41;19.40;71.00
12977;DHT22;6553;48.412;9.514;2023-11-21T06:30:08;19.40;71.10
12977;DHT22;6553;48.412;9.514;2023-11-21T06:32:38;19.30;70.90
12977;DHT22;6553;48.412;9.514;2023-11-21T06:35:06;19.30;70.80
12977;DHT22;6553;48.412;9.514;2023-11-21T06:37:34;19.40;70.90
12977;DHT22;6553;48.412;9.514;2023-11-21T06:40:00;19.40;70.90
12977;DHT22;6553;48.412;9.514;2023-11-21T06:42:26;19.40;70.80
12977;DHT22;6553;48.412;9.514;2023-11-21T06:44:53;19.40;71.00
12977;DHT22;6553;48.412;9.514;2023-11-21T06:47:25;19.40;70.90
12977;DHT22;6553;48.412;9.514;2023-11-21T06:49:52;19.30;70.80
12977;DHT22;6553;48.412;9.514;2023-11-21T06:52:18;19.30;70.80
12977;DHT22;6553;48.412;9.514;2023-11-21T06:54:45;19.30;70.80
12977;DHT22;6553;48.412;9.514;2023-11-21T06:57:12;19.30;70.80
12977;DHT22;6553;48.412;9.514;2023-11-21T06:59:38;19.40;70.80
12977;DHT22;6553;48.412;9.514;2023-11-21T07:02:04;19.40;71.60
12977;DHT22;6553;48.412;9.514;2023-11-21T07:04:32;19.30;70.80
12977;DHT22;6553;48.412;9.514;2023-11-21T07:06:59;19.40;70.90
12977;DHT22;6553;48.412;9.514;2023-11-21T07:09:25;19.40;70.90
12977;DHT22;6553;48.412;9.514;2023-11-21T07:11:54;19.40;70.90
12977;DHT22;6553;48.412;9.514;2023-11-21T07:14:20;19.40;70.90
12977;DHT22;6553;48.412;9.514;2023-11-21T07:16:46;19.40;70.80
12977;DHT22;6553;48.412;9.514;2023-11-21T07:19:13;19.40;70.80
12977;DHT22;6553;48.412;9.514;2023-11-21T07:21:39;19.40;70.90
12977;DHT22;6553;48.412;9.514;2023-11-21T07:24:06;19.40;70.90
12977;DHT22;6553;48.412;9.514;2023-11-21T07:26:34;19.40;70.80
12977;DHT22;6553;48.412;9.514;2023-11-21T07:29:01;19.30;70.70
12977;DHT22;6553;48.412;9.514;2023-11-21T07:31:28;19.40;70.80
12977;DHT22;6553;48.412;9.514;2023-11-21T07:33:54;19.30;70.70
12977;DHT22;6553;48.412;9.514;2023-11-21T07:36:23;19.30;70.70
12977;DHT22;6553;48.412;9.514;2023-11-21T07:38:49;19.40;70.80
12977;DHT22;6553;48.412;9.514;2023-11-21T07:41:16;19.40;70.80
12977;DHT22;6553;48.412;9.514;2023-11-21T07:43:43;19.30;70.80
12977;DHT22;6553;48.412;9.514;2023-11-21T07:46:11;19.40;70.90
12977;DHT22;6553;48.412;9.514;2023-11-21T07:48:38;19.40;70.90
12977;DHT22;6553;48.412;9.514;2023-11-21T07:51:05;19.40;71.00
12977;DHT22;6553;48.412;9.514;2023-11-21T07:53:32;19.30;70.90
12977;DHT22;6553;48.412;9.514;2023-11-21T07:56:02;19.40;70.90
12977;DHT22;6553;48.412;9.514;2023-11-21T07:58:29;19.40;70.90
12977;DHT22;6553;48.412;9.514;2023-11-21T08:00:56;19.40;70.90
12977;DHT22;6553;48.412;9.514;2023-11-21T08:03:22;19.40;70.90
12977;DHT22;6553;48.412;9.514;2023-11-21T08:05:47;19.30;70.80
12977;DHT22;6553;48.412;9.514;2023-11-21T08:08:13;19.30;70.80
12977;DHT22;6553;48.412;9.514;2023-11-21T08:10:39;19.40;70.90
12977;DHT22;6553;48.412;9.514;2023-11-21T08:13:05;19.40;70.90
12977;DHT22;6553;48.412;9.514;2023-11-21T08:15:31;19.40;70.90
12977;DHT22;6553;48.412;9.514;2023-11-21T08:17:58;19.40;70.90
12977;DHT22;6553;48.412;9.514;2023-11-21T08:20:24;19.40;71.00
12977;DHT22;6553;48.412;9.514;2023-11-21T08:22:50;19.40;70.90
12977;DHT22;6553;48.412;9.514;2023-11-21T08:25:18;19.40;70.90
12977;DHT22;6553;48.412;9.514;2023-11-21T08:27:46;19.40;71.00
12977;DHT22;6553;48.412;9.514;2023-11-21T08:30:12;19.40;71.00
12977;DHT22;6553;48.412;9.514;2023-11-21T08:32:39;19.40;71.00
12977;DHT22;6553;48.412;9.514;2023-11-21T08:35:07;19.40;71.00
12977;DHT22;6553;48.412;9.514;2023-11-21T08:37:33;19.30;70.90
12977;DHT22;6553;48.412;9.514;2023-11-21T08:40:03;19.40;71.10
12977;DHT22;6553;48.412;9.514;2023-11-21T08:42:35;19.40;71.00
12977;DHT22;6553;48.412;9.514;2023-11-21T08:45:01;19.40;71.00
12977;DHT22;6553;48.412;9.514;2023-11-21T08:47:27;19.40;71.00
12977;DHT22;6553;48.412;9.514;2023-11-21T08:49:53;19.40;71.10
12977;DHT22;6553;48.412;9.514;2023-11-21T08:52:19;19.30;70.90
12977;DHT22;6553;48.412;9.514;2023-11-21T08:54:49;19.40;71.80
12977;DHT22;6553;48.412;9.514;2023-11-21T08:57:25;19.40;71.10
12977;DHT22;6553;48.412;9.514;2023-11-21T08:59:51;19.40;71.00
12977;DHT22;6553;48.412;9.514;2023-11-21T09:02:26;19.40;71.00
12977;DHT22;6553;48.412;9.514;2023-11-21T09:04:52;19.40;71.00
12977;DHT22;6553;48.412;9.514;2023-11-21T09:07:21;19.40;71.00
12977;DHT22;6553;48.412;9.514;2023-11-21T09:09:47;19.40;70.90
12977;DHT22;6553;48.412;9.514;2023-11-21T09:12:15;19.40;70.90
12977;DHT22;6553;48.412;9.514;2023-11-21T09:14:42;19.40;71.00
12977;DHT22;6553;48.412;9.514;2023-11-21T09:17:09;19.40;70.90
12977;DHT22;6553;48.412;9.514;2023-11-21T09:19:38;19.40;71.80
12977;DHT22;6553;48.412;9.514;2023-11-21T09:22:04;19.40;71.00
12977;DHT22;6553;48.412;9.514;2023-11-21T09:24:33;19.40;70.90
12977;DHT22;6553;48.412;9.514;2023-11-21T09:27:00;19.40;71.70
12977;DHT22;6553;48.412;9.514;2023-11-21T09:29:26;19.40;70.90
12977;DHT22;6553;48.412;9.514;2023-11-21T09:31:52;19.40;70.90
12977;DHT22;6553;48.412;9.514;2023-11-21T09:34:20;19.40;71.00
12977;DHT22;6553;48.412;9.514;2023-11-21T09:36:47;19.40;71.00
12977;DHT22;6553;48.412;9.514;2023-11-21T09:39:13;19.40;71.00
12977;DHT22;6553;48.412;9.514;2023-11-21T09:41:54;19.40;70.90
12977;DHT22;6553;48.412;9.514;2023-11-21T09:44:35;19.40;70.90
12977;DHT22;6553;48.412;9.514;2023-11-21T09:47:05;19.40;70.90
12977;DHT22;6553;48.412;9.514;2023-11-21T09:49:37;19.40;70.90
12977;DHT22;6553;48.412;9.514;2023-11-21T09:52:04;19.40;70.90
12977;DHT22;6553;48.412;9.514;2023-11-21T09:54:35;19.40;70.90
12977;DHT22;6553;48.412;9.514;2023-11-21T09:57:02;19.40;71.00
12977;DHT22;6553;48.412;9.514;2023-11-21T09:59:30;19.40;71.00
12977;DHT22;6553;48.412;9.514;2023-11-21T10:01:59;19.50;71.10
12977;DHT22;6553;48.412;9.514;2023-11-21T10:04:25;19.40;70.90
12977;DHT22;6553;48.412;9.514;2023-11-21T10:06:53;19.50;71.00
12977;DHT22;6553;48.412;9.514;2023-11-21T10:09:21;19.50;71.00
12977;DHT22;6553;48.412;9.514;2023-11-21T10:11:49;19.50;71.00
12977;DHT22;6553;48.412;9.514;2023-11-21T10:14:19;19.50;71.00
12977;DHT22;6553;48.412;9.514;2023-11-21T10:16:50;19.50;70.90
12977;DHT22;6553;48.412;9.514;2023-11-21T10:19:18;19.50;70.90
12977;DHT22;6553;48.412;9.514;2023-11-21T10:21:46;19.50;70.90
12977;DHT22;6553;48.412;9.514;2023-11-21T10:24:12;19.50;71.00
12977;DHT22;6553;48.412;9.514;2023-11-21T10:26:38;19.50;71.00
12977;DHT22;6553;48.412;9.514;2023-11-21T10:29:04;19.50;71.00
12977;DHT22;6553;48.412;9.514;2023-11-21T10:31:31;19.50;71.00
12977;DHT22;6553;48.412;9.514;2023-11-21T10:34:15;19.50;71.00
12977;DHT22;6553;48.412;9.514;2023-11-21T10:36:43;19.50;71.00
12977;DHT22;6553;48.412;9.514;2023-11-21T10:39:09;19.50;71.00
12977;DHT22;6553;48.412;9.514;2023-11-21T10:41:35;19.50;71.00
12977;DHT22;6553;48.412;9.514;2023-11-21T10:44:04;19.50;71.00
12977;DHT22;6553;48.412;9.514;2023-11-21T10:46:33;19.50;71.00
12977;DHT22;6553;48.412;9.514;2023-11-21T10:48:59;19.50;71.00
12977;DHT22;6553;48.412;9.514;2023-11-21T10:51:25;19.50;71.00
12977;DHT22;6553;48.412;9.514;2023-11-21T10:53:52;19.50;71.00
12977;DHT22;6553;48.412;9.514;2023-11-21T10:56:18;19.50;71.70
12977;DHT22;6553;48.412;9.514;2023-11-21T10:58:48;19.50;71.00
12977;DHT22;6553;48.412;9.514;2023-11-21T11:01:17;19.50;71.00
12977;DHT22;6553;48.412;9.514;2023-11-21T11:03:44;19.50;71.00
12977;DHT22;6553;48.412;9.514;2023-11-21T11:06:10;19.50;71.00
12977;DHT22;6553;48.412;9.514;2023-11-21T11:08:38;19.50;71.00
12977;DHT22;6553;48.412;9.514;2023-11-21T11:11:09;19.50;71.00
12977;DHT22;6553;48.412;9.514;2023-11-21T11:13:35;19.50;71.00
12977;DHT22;6553;48.412;9.514;2023-11-21T11:16:03;19.50;71.00
12977;DHT22;6553;48.412;9.514;2023-11-21T11:18:33;19.50;71.00
12977;DHT22;6553;48.412;9.514;2023-11-21T11:21:11;19.50;71.70
12977;DHT22;6553;48.412;9.514;2023-11-21T11:24:11;19.50;71.00
12977;DHT22;6553;48.412;9.514;2023-11-21T11:29:52;19.50;71.00
12977;DHT22;6553;48.412;9.514;2023-11-21T11:32:45;19.50;71.00
12977;DHT22;6553;48.412;9.514;2023-11-21T11:38:33;19.50;71.00
12977;DHT22;6553;48.412;9.514;2023-11-21T11:41:05;19.50;71.00
12977;DHT22;6553;48.412;9.514;2023-11-21T11:43:32;19.50;71.00
12977;DHT22;6553;48.412;9.514;2023-11-21T11:46:01;19.50;71.00
12977;DHT22;6553;48.412;9.514;2023-11-21T11:48:37;19.50;71.00
12977;DHT22;6553;48.412;9.514;2023-11-21T11:51:11;19.50;71.00
12977;DHT22;6553;48.412;9.514;2023-11-21T11:53:47;19.50;71.00
12977;DHT22;6553;48.412;9.514;2023-11-21T11:56:30;19.50;71.10
12977;DHT22;6553;48.412;9.514;2023-11-21T11:59:01;19.50;71.10
12977;DHT22;6553;48.412;9.514;2023-11-21T12:01:29;19.50;71.10
12977;DHT22;6553;48.412;9.514;2023-11-21T12:06:46;19.50;71.20
12977;DHT22;6553;48.412;9.514;2023-11-21T12:09:22;19.50;71.20
12977;DHT22;6553;48.412;9.514;2023-11-21T12:11:50;19.50;71.20
12977;DHT22;6553;48.412;9.514;2023-11-21T12:14:16;19.50;71.10
12977;DHT22;6553;48.412;9.514;2023-11-21T12:16:42;19.50;71.00
12977;DHT22;6553;48.412;9.514;2023-11-21T12:19:12;19.50;71.00
12977;DHT22;6553;48.412;9.514;2023-11-21T12:21:38;19.60;71.20
12977;DHT22;6553;48.412;9.514;2023-11-21T12:24:07;19.50;71.00
12977;DHT22;6553;48.412;9.514;2023-11-21T12:26:34;19.50;71.10
12977;DHT22;6553;48.412;9.514;2023-11-21T12:29:03;19.50;71.10
12977;DHT22;6553;48.412;9.514;2023-11-21T12:31:30;19.50;71.20
12977;DHT22;6553;48.412;9.514;2023-11-21T12:33:56;19.50;71.10
12977;DHT22;6553;48.412;9.514;2023-11-21T12:36:23;19.50;71.10
12977;DHT22;6553;48.412;9.514;2023-11-21T12:38:50;19.50;71.10
12977;DHT22;6553;48.412;9.514;2023-11-21T12:41:16;19.50;71.90
12977;DHT22;6553;48.412;9.514;2023-11-21T12:43:43;19.50;71.10
12977;DHT22;6553;48.412;9.514;2023-11-21T12:46:10;19.50;71.10
12977;DHT22;6553;48.412;9.514;2023-11-21T12:48:41;19.50;71.20
12977;DHT22;6553;48.412;9.514;2023-11-21T12:51:11;19.50;71.10
12977;DHT22;6553;48.412;9.514;2023-11-21T12:53:39;19.50;71.10
12977;DHT22;6553;48.412;9.514;2023-11-21T12:56:15;19.50;71.10
12977;DHT22;6553;48.412;9.514;2023-11-21T12:58:44;19.50;71.10
12977;DHT22;6553;48.412;9.514;2023-11-21T13:01:13;19.50;71.20
12977;DHT22;6553;48.412;9.514;2023-11-21T13:03:46;19.50;71.20
12977;DHT22;6553;48.412;9.514;2023-11-21T13:06:15;19.50;71.20
12977;DHT22;6553;48.412;9.514;2023-11-21T13:08:41;19.50;71.10
12977;DHT22;6553;48.412;9.514;2023-11-21T13:11:11;19.50;71.10
12977;DHT22;6553;48.412;9.514;2023-11-21T13:13:40;19.60;71.30
12977;DHT22;6553;48.412;9.514;2023-11-21T13:16:10;19.50;71.20
12977;DHT22;6553;48.412;9.514;2023-11-21T13:18:36;19.50;71.20
12977;DHT22;6553;48.412;9.514;2023-11-21T13:21:08;19.50;71.20
12977;DHT22;6553;48.412;9.514;2023-11-21T13:23:43;19.50;71.20
12977;DHT22;6553;48.412;9.514;2023-11-21T13:26:11;19.50;71.30
12977;DHT22;6553;48.412;9.514;2023-11-21T13:28:37;19.50;71.30
12977;DHT22;6553;48.412;9.514;2023-11-21T13:31:04;19.50;71.30
12977;DHT22;6553;48.412;9.514;2023-11-21T13:33:49;19.50;71.30
12977;DHT22;6553;48.412;9.514;2023-11-21T13:36:24;19.50;71.40
12977;DHT22;6553;48.412;9.514;2023-11-21T13:38:51;19.50;71.30
12977;DHT22;6553;48.412;9.514;2023-11-21T13:41:20;19.50;71.40
12977;DHT22;6553;48.412;9.514;2023-11-21T13:43:48;19.50;71.40
12977;DHT22;6553;48.412;9.514;2023-11-21T13:46:23;19.50;71.40
12977;DHT22;6553;48.412;9.514;2023-11-21T13:48:49;19.50;71.40
12977;DHT22;6553;48.412;9.514;2023-11-21T13:51:22;19.50;71.40
12977;DHT22;6553;48.412;9.514;2023-11-21T13:53:56;19.50;71.30
12977;DHT22;6553;48.412;9.514;2023-11-21T13:56:22;19.50;71.30
12977;DHT22;6553;48.412;9.514;2023-11-21T13:58:50;19.50;71.30
12977;DHT22;6553;48.412;9.514;2023-11-21T14:01:24;19.50;71.30
12977;DHT22;6553;48.412;9.514;2023-11-21T14:04:02;19.50;71.30
12977;DHT22;6553;48.412;9.514;2023-11-21T14:06:45;19.50;71.40
12977;DHT22;6553;48.412;9.514;2023-11-21T14:09:15;19.50;71.30
12977;DHT22;6553;48.412;9.514;2023-11-21T14:11:54;19.50;71.40
12977;DHT22;6553;48.412;9.514;2023-11-21T14:14:24;19.50;71.30
12977;DHT22;6553;48.412;9.514;2023-11-21T14:16:51;19.50;71.30
12977;DHT22;6553;48.412;9.514;2023-11-21T14:19:18;19.50;71.30
12977;DHT22;6553;48.412;9.514;2023-11-21T14:21:45;19.50;71.30
12977;DHT22;6553;48.412;9.514;2023-11-21T14:24:12;19.50;72.20
12977;DHT22;6553;48.412;9.514;2023-11-21T14:26:41;19.50;71.30
12977;DHT22;6553;48.412;9.514;2023-11-21T14:29:11;19.50;71.40
12977;DHT22;6553;48.412;9.514;2023-11-21T14:31:40;19.50;71.40
12977;DHT22;6553;48.412;9.514;2023-11-21T14:34:07;19.50;71.40
12977;DHT22;6553;48.412;9.514;2023-11-21T14:36:34;19.50;71.40
12977;DHT22;6553;48.412;9.514;2023-11-21T14:39:02;19.50;71.40
12977;DHT22;6553;48.412;9.514;2023-11-21T14:41:32;19.50;71.40
12977;DHT22;6553;48.412;9.514;2023-11-21T14:44:01;19.50;71.40
12977;DHT22;6553;48.412;9.514;2023-11-21T14:46:30;19.50;71.50
12977;DHT22;6553;48.412;9.514;2023-11-21T14:48:56;19.50;71.40
12977;DHT22;6553;48.412;9.514;2023-11-21T14:51:33;19.50;71.40
12977;DHT22;6553;48.412;9.514;2023-11-21T14:54:10;19.50;71.40
12977;DHT22;6553;48.412;9.514;2023-11-21T14:56:37;19.40;71.40
12977;DHT22;6553;48.412;9.514;2023-11-21T14:59:04;19.50;71.50
12977;DHT22;6553;48.412;9.514;2023-11-21T15:01:41;19.50;71.50
12977;DHT22;6553;48.412;9.514;2023-11-21T15:04:23;19.50;71.40
12977;DHT22;6553;48.412;9.514;2023-11-21T15:07:01;19.50;71.50
12977;DHT22;6553;48.412;9.514;2023-11-21T15:09:28;19.50;71.50
12977;DHT22;6553;48.412;9.514;2023-11-21T15:12:04;19.50;71.50
12977;DHT22;6553;48.412;9.514;2023-11-21T15:14:49;19.50;71.50
12977;DHT22;6553;48.412;9.514;2023-11-21T15:17:20;19.50;71.60
12977;DHT22;6553;48.412;9.514;2023-11-21T15:19:52;19.50;71.60
12977;DHT22;6553;48.412;9.514;2023-11-21T15:22:20;19.50;71.60
12977;DHT22;6553;48.412;9.514;2023-11-21T15:24:46;19.50;71.60
12977;DHT22;6553;48.412;9.514;2023-11-21T15:27:13;19.50;71.60
12977;DHT22;6553;48.412;9.514;2023-11-21T15:29:39;19.50;71.50
12977;DHT22;6553;48.412;9.514;2023-11-21T15:32:06;19.50;71.60
12977;DHT22;6553;48.412;9.514;2023-11-21T15:34:33;19.50;71.60
12977;DHT22;6553;48.412;9.514;2023-11-21T15:37:00;19.40;71.50
12977;DHT22;6553;48.412;9.514;2023-11-21T15:39:26;19.50;71.60
12977;DHT22;6553;48.412;9.514;2023-11-21T15:41:59;19.40;71.50
12977;DHT22;6553;48.412;9.514;2023-11-21T15:44:25;19.50;71.60
12977;DHT22;6553;48.412;9.514;2023-11-21T15:46:55;19.40;71.50
12977;DHT22;6553;48.412;9.514;2023-11-21T15:49:21;19.50;71.60
12977;DHT22;6553;48.412;9.514;2023-11-21T15:51:50;19.50;71.70
12977;DHT22;6553;48.412;9.514;2023-11-21T15:54:22;19.50;71.70
12977;DHT22;6553;48.412;9.514;2023-11-21T15:56:51;19.50;71.60
12977;DHT22;6553;48.412;9.514;2023-11-21T15:59:18;19.50;71.70